createdAt,value
2023-05-24T09:01:34.778Z,6.00
2023-05-24T09:06:41.020Z,4.53
2023-05-24T09:11:46.190Z,5.20
2023-05-24T09:16:52.049Z,4.68
2023-05-24T09:21:57.457Z,4.72
2023-05-24T09:27:07.107Z,4.72
2023-05-24T09:32:12.257Z,4.55
2023-05-24T09:37:16.874Z,4.37
2023-05-24T09:42:24.418Z,4.87
2023-05-24T09:47:31.230Z,4.70
2023-05-24T09:52:37.792Z,4.65
2023-05-24T09:57:41.695Z,4.18
2023-05-24T10:02:53.321Z,4.57
2023-05-24T10:07:58.976Z,4.07
2023-05-24T10:13:03.980Z,4.50
2023-05-24T10:18:12.227Z,4.47
2023-05-24T10:23:22.151Z,3.90
2023-05-24T10:28:27.253Z,4.30
2023-05-24T10:33:36.023Z,3.85
2023-05-24T10:38:41.050Z,4.37
2023-05-24T10:44:00.926Z,4.07
2023-05-24T10:49:15.145Z,4.20
2023-05-24T10:54:20.109Z,3.92
2023-05-24T10:59:26.057Z,4.47
2023-05-24T11:04:37.742Z,4.07
2023-05-24T11:09:46.303Z,4.00
2023-05-24T11:14:52.341Z,4.15
2023-05-24T11:19:57.918Z,3.78
2023-05-24T11:25:06.111Z,3.37
2023-05-24T11:35:16.100Z,4.05
2023-05-24T11:40:20.379Z,3.80
2023-05-24T11:45:24.317Z,3.83
2023-05-24T11:50:33.145Z,3.80
2023-05-24T11:55:43.587Z,3.80
2023-05-24T12:00:48.955Z,4.28
2023-05-24T12:05:58.287Z,4.22
2023-05-24T12:11:02.987Z,4.10
2023-05-24T12:16:07.289Z,4.07
2023-05-24T12:21:13.001Z,4.05
2023-05-24T12:26:20.253Z,4.03
2023-05-24T12:31:24.076Z,4.22
2023-05-24T12:36:31.524Z,3.75
2023-05-24T12:41:35.260Z,3.23
2023-05-24T12:46:39.149Z,3.75
2023-05-24T12:51:44.938Z,3.85
2023-05-24T12:56:50.642Z,4.28
2023-05-24T13:01:55.028Z,3.45
2023-05-24T13:07:00.438Z,3.80
2023-05-24T13:12:05.921Z,3.58
2023-05-24T13:17:09.941Z,4.60
2023-05-24T13:22:15.477Z,4.60
2023-05-24T13:27:19.469Z,4.12
2023-05-24T13:32:23.550Z,3.50
2023-05-24T13:37:28.910Z,3.55
2023-05-24T13:42:32.762Z,3.60
2023-05-24T13:47:40.363Z,3.60
2023-05-24T13:52:46.401Z,3.97
2023-05-24T13:57:52.097Z,3.67
2023-05-24T14:02:56.516Z,4.03
2023-05-24T14:08:06.373Z,3.70
2023-05-24T14:18:16.914Z,3.58
2023-05-24T14:23:22.047Z,3.70
2023-05-24T14:28:25.903Z,3.97
2023-05-24T14:33:29.763Z,4.15
2023-05-24T14:38:34.910Z,3.42
2023-05-24T14:43:40.353Z,3.30
2023-05-24T14:48:44.368Z,3.30
2023-05-24T14:53:49.530Z,3.20
2023-05-24T14:58:55.038Z,2.95
2023-05-24T15:03:59.155Z,3.05
2023-05-24T15:09:04.772Z,3.30
2023-05-24T15:14:08.523Z,3.37
2023-05-24T15:19:13.116Z,3.00
2023-05-24T15:24:18.358Z,3.00
2023-05-24T15:29:22.474Z,3.03
2023-05-24T15:34:26.229Z,2.25
2023-05-24T15:39:31.436Z,2.90
2023-05-24T15:44:35.182Z,2.90
2023-05-24T15:49:40.255Z,2.62
2023-05-24T15:54:46.079Z,2.78
2023-05-24T15:59:49.863Z,2.37
2023-05-24T16:04:54.286Z,3.30
2023-05-24T16:09:59.618Z,2.22
2023-05-24T16:15:03.781Z,2.92
2023-05-24T16:20:08.728Z,2.78
2023-05-24T16:25:13.937Z,2.40
2023-05-24T16:30:17.693Z,3.03
2023-05-24T16:35:21.513Z,2.90
2023-05-24T16:40:28.349Z,2.65
2023-05-24T16:45:32.146Z,2.53
2023-05-24T16:50:36.303Z,2.83
2023-05-24T16:55:41.462Z,2.95
2023-05-24T17:00:45.310Z,3.08
2023-05-24T17:05:50.302Z,2.50
2023-05-24T17:10:57.107Z,3.40
2023-05-24T17:16:01.077Z,2.97
2023-05-24T17:21:06.072Z,2.95
2023-05-24T17:26:14.680Z,2.65
2023-05-24T17:31:18.624Z,2.87
2023-05-24T17:36:22.419Z,2.25
2023-05-24T17:41:27.574Z,2.67
2023-05-24T17:46:33.508Z,3.15
2023-05-24T17:51:38.995Z,3.00
2023-05-24T17:56:44.142Z,2.55
2023-05-24T18:01:48.178Z,2.25
2023-05-24T18:06:51.953Z,2.50
2023-05-24T18:11:57.719Z,2.50
2023-05-24T18:17:01.500Z,2.90
2023-05-24T18:22:05.955Z,2.92
2023-05-24T18:27:11.068Z,3.08
2023-05-24T18:32:14.909Z,2.85
2023-05-24T18:37:19.798Z,3.25
2023-05-24T18:42:24.945Z,2.90
2023-05-24T18:47:31.022Z,3.42
2023-05-24T18:52:34.852Z,3.37
2023-05-24T18:57:40.077Z,3.62
2023-05-24T19:02:43.928Z,2.95
2023-05-24T19:07:48.046Z,3.97
2023-05-24T19:12:53.138Z,3.12
2023-05-24T19:17:57.909Z,3.05
2023-05-24T19:23:01.849Z,3.33
2023-05-24T19:28:07.286Z,3.37
2023-05-24T19:33:11.581Z,3.58
2023-05-24T19:38:17.646Z,3.42
2023-05-24T19:43:22.951Z,3.37
2023-05-24T19:48:27.113Z,3.28
2023-05-24T19:53:30.963Z,3.53
2023-05-24T19:58:36.142Z,3.37
2023-05-24T20:03:39.999Z,3.03
2023-05-24T20:08:44.064Z,3.60
2023-05-24T20:13:50.008Z,3.00
2023-05-24T20:18:54.290Z,2.75
2023-05-24T20:23:58.281Z,2.90
2023-05-24T20:29:04.234Z,2.97
2023-05-24T20:34:08.042Z,3.33
2023-05-24T20:39:12.227Z,3.45
2023-05-24T20:44:17.431Z,3.22
2023-05-24T20:49:21.316Z,3.17
2023-05-24T20:54:25.109Z,3.72
2023-05-24T20:59:30.455Z,4.28
2023-05-24T21:04:34.263Z,3.53
2023-05-24T21:09:37.980Z,3.60
2023-05-24T21:14:43.361Z,3.28
2023-05-24T21:19:47.162Z,3.97
2023-05-24T21:24:50.923Z,3.60
2023-05-24T21:29:56.140Z,3.03
2023-05-24T21:34:59.929Z,3.05
2023-05-24T21:40:05.122Z,3.87
2023-05-24T21:45:11.408Z,3.37
2023-05-24T21:50:15.294Z,3.25
2023-05-24T21:55:19.141Z,3.17
2023-05-24T22:00:24.690Z,3.17
2023-05-24T22:05:28.493Z,4.22
2023-05-24T22:10:32.274Z,4.30
2023-05-24T22:15:37.407Z,3.70
2023-05-24T22:20:41.202Z,3.83
2023-05-24T22:25:45.208Z,3.95
2023-05-24T22:30:50.404Z,3.70
2023-05-24T22:35:54.110Z,3.40
2023-05-24T22:40:57.884Z,3.92
2023-05-24T22:46:03.044Z,4.10
2023-05-24T22:51:07.588Z,3.75
2023-05-24T22:56:11.430Z,4.10
2023-05-24T23:01:17.328Z,3.92
2023-05-24T23:06:21.252Z,3.62
2023-05-24T23:11:26.397Z,4.70
2023-05-24T23:16:34.168Z,4.50
2023-05-24T23:21:38.013Z,4.43
2023-05-24T23:26:41.889Z,4.18
2023-05-24T23:31:47.000Z,5.00
2023-05-24T23:36:50.780Z,4.22
2023-05-24T23:41:54.687Z,4.62
2023-05-24T23:46:59.840Z,5.10
2023-05-24T23:52:03.591Z,4.68
2023-05-24T23:57:08.231Z,4.20
